Terminal Aerodrome Forecast
Issued by NWS Sioux Falls, SD

Home | Current Version | Previous Version | Graphics & Text | Print | Product List | Glossary Off
Versions: 1 2 3 4 5 6 7 8 9 10 11 12 13 14 15 16 17 18 19 20 21 22 23 24

000
FTUS43 KFSD 142138 AAB
TAFFSD
TAF AMD
KFSD 142138Z 1422/1518 21007KT 2SM -DZ BR OVC004
     FM150000 33008KT 3SM -DZ BR OVC008
     FM151300 02019G27KT 2SM RA BR OVC008
      TEMPO 1516/1518 2SM FZRAPL OVC010=

USA.gov is the U.S. government's official web portal to all federal, state and local government web resources and services.